sensor_id;sensor_type;location;lat;lon;timestamp;P1;durP1;ratioP1;P2;durP2;ratioP2
23718;SDS011;43322;52.230;5.702;2024-02-26T00:01:47;11.57;;;10.50;;
23718;SDS011;43322;52.230;5.702;2024-02-26T00:04:14;10.20;;;9.35;;
23718;SDS011;43322;52.230;5.702;2024-02-26T00:06:41;10.93;;;9.90;;
23718;SDS011;43322;52.230;5.702;2024-02-26T00:09:09;11.63;;;10.52;;
23718;SDS011;43322;52.230;5.702;2024-02-26T00:11:36;11.82;;;10.57;;
23718;SDS011;43322;52.230;5.702;2024-02-26T00:14:03;11.13;;;9.98;;
23718;SDS011;43322;52.230;5.702;2024-02-26T00:16:30;11.38;;;10.38;;
23718;SDS011;43322;52.230;5.702;2024-02-26T00:18:58;11.48;;;10.48;;
23718;SDS011;43322;52.230;5.702;2024-02-26T00:21:25;12.07;;;11.05;;
23718;SDS011;43322;52.230;5.702;2024-02-26T00:23:52;10.85;;;9.95;;
23718;SDS011;43322;52.230;5.702;2024-02-26T00:26:19;11.38;;;10.27;;
23718;SDS011;43322;52.230;5.702;2024-02-26T00:28:46;11.93;;;10.88;;
23718;SDS011;43322;52.230;5.702;2024-02-26T00:31:13;11.90;;;10.65;;
23718;SDS011;43322;52.230;5.702;2024-02-26T00:33:40;12.77;;;10.93;;
23718;SDS011;43322;52.230;5.702;2024-02-26T00:36:08;11.68;;;10.52;;
23718;SDS011;43322;52.230;5.702;2024-02-26T00:38:35;12.15;;;10.95;;
23718;SDS011;43322;52.230;5.702;2024-02-26T00:41:02;12.05;;;10.95;;
23718;SDS011;43322;52.230;5.702;2024-02-26T00:43:29;12.13;;;10.82;;
23718;SDS011;43322;52.230;5.702;2024-02-26T00:45:56;12.05;;;10.63;;
23718;SDS011;43322;52.230;5.702;2024-02-26T00:48:23;11.73;;;10.63;;
23718;SDS011;43322;52.230;5.702;2024-02-26T00:50:50;11.73;;;10.57;;
23718;SDS011;43322;52.230;5.702;2024-02-26T00:53:19;11.57;;;10.48;;
23718;SDS011;43322;52.230;5.702;2024-02-26T00:55:45;11.80;;;10.63;;
23718;SDS011;43322;52.230;5.702;2024-02-26T00:58:12;11.82;;;10.63;;
23718;SDS011;43322;52.230;5.702;2024-02-26T01:00:39;13.13;;;10.68;;
23718;SDS011;43322;52.230;5.702;2024-02-26T01:03:06;11.63;;;10.52;;
23718;SDS011;43322;52.230;5.702;2024-02-26T01:05:35;11.93;;;10.30;;
23718;SDS011;43322;52.230;5.702;2024-02-26T01:08:03;11.00;;;10.00;;
23718;SDS011;43322;52.230;5.702;2024-02-26T01:10:31;11.27;;;10.18;;
23718;SDS011;43322;52.230;5.702;2024-02-26T01:12:59;11.07;;;9.98;;
23718;SDS011;43322;52.230;5.702;2024-02-26T01:15:26;11.55;;;10.45;;
23718;SDS011;43322;52.230;5.702;2024-02-26T01:17:53;15.77;;;10.75;;
23718;SDS011;43322;52.230;5.702;2024-02-26T01:20:20;11.85;;;10.68;;
23718;SDS011;43322;52.230;5.702;2024-02-26T01:22:47;12.05;;;10.52;;
23718;SDS011;43322;52.230;5.702;2024-02-26T01:25:13;13.02;;;10.90;;
23718;SDS011;43322;52.230;5.702;2024-02-26T01:27:42;11.85;;;10.63;;
23718;SDS011;43322;52.230;5.702;2024-02-26T01:30:09;11.90;;;10.77;;
23718;SDS011;43322;52.230;5.702;2024-02-26T01:32:37;12.30;;;11.07;;
23718;SDS011;43322;52.230;5.702;2024-02-26T01:35:04;13.20;;;11.80;;
23718;SDS011;43322;52.230;5.702;2024-02-26T01:37:35;13.20;;;11.90;;
23718;SDS011;43322;52.230;5.702;2024-02-26T01:40:02;12.50;;;11.18;;
23718;SDS011;43322;52.230;5.702;2024-02-26T01:42:29;14.25;;;12.10;;
23718;SDS011;43322;52.230;5.702;2024-02-26T01:44:58;15.68;;;11.85;;
23718;SDS011;43322;52.230;5.702;2024-02-26T01:47:25;15.40;;;11.90;;
23718;SDS011;43322;52.230;5.702;2024-02-26T01:49:53;15.50;;;12.80;;
23718;SDS011;43322;52.230;5.702;2024-02-26T01:52:20;14.10;;;12.25;;
23718;SDS011;43322;52.230;5.702;2024-02-26T01:54:48;14.02;;;12.23;;
23718;SDS011;43322;52.230;5.702;2024-02-26T01:57:15;18.38;;;13.50;;
23718;SDS011;43322;52.230;5.702;2024-02-26T01:59:43;13.75;;;12.20;;
23718;SDS011;43322;52.230;5.702;2024-02-26T02:02:11;18.83;;;12.65;;
23718;SDS011;43322;52.230;5.702;2024-02-26T02:04:38;16.63;;;13.48;;
23718;SDS011;43322;52.230;5.702;2024-02-26T02:07:06;14.02;;;12.23;;
23718;SDS011;43322;52.230;5.702;2024-02-26T02:09:33;16.33;;;12.68;;
23718;SDS011;43322;52.230;5.702;2024-02-26T02:11:59;15.13;;;13.38;;
23718;SDS011;43322;52.230;5.702;2024-02-26T02:14:26;14.45;;;12.90;;
23718;SDS011;43322;52.230;5.702;2024-02-26T02:16:53;15.85;;;13.23;;
23718;SDS011;43322;52.230;5.702;2024-02-26T02:19:22;14.18;;;12.63;;
23718;SDS011;43322;52.230;5.702;2024-02-26T02:21:50;16.42;;;13.70;;
23718;SDS011;43322;52.230;5.702;2024-02-26T02:24:17;16.70;;;13.57;;
23718;SDS011;43322;52.230;5.702;2024-02-26T02:26:44;16.92;;;13.75;;
23718;SDS011;43322;52.230;5.702;2024-02-26T02:29:11;16.52;;;13.07;;
23718;SDS011;43322;52.230;5.702;2024-02-26T02:31:38;14.32;;;12.73;;
23718;SDS011;43322;52.230;5.702;2024-02-26T02:34:05;16.13;;;12.82;;
23718;SDS011;43322;52.230;5.702;2024-02-26T02:36:33;14.23;;;11.98;;
23718;SDS011;43322;52.230;5.702;2024-02-26T02:39:01;16.75;;;12.82;;
23718;SDS011;43322;52.230;5.702;2024-02-26T02:41:28;17.17;;;13.15;;
23718;SDS011;43322;52.230;5.702;2024-02-26T02:43:55;16.42;;;12.77;;
23718;SDS011;43322;52.230;5.702;2024-02-26T02:46:22;14.75;;;13.13;;
23718;SDS011;43322;52.230;5.702;2024-02-26T02:48:49;14.50;;;13.00;;
23718;SDS011;43322;52.230;5.702;2024-02-26T02:51:16;14.43;;;12.65;;
23718;SDS011;43322;52.230;5.702;2024-02-26T02:53:43;15.70;;;13.18;;
23718;SDS011;43322;52.230;5.702;2024-02-26T02:56:11;14.50;;;12.50;;
23718;SDS011;43322;52.230;5.702;2024-02-26T02:58:38;17.45;;;13.32;;
23718;SDS011;43322;52.230;5.702;2024-02-26T03:01:05;15.00;;;12.75;;
23718;SDS011;43322;52.230;5.702;2024-02-26T03:03:32;14.73;;;13.20;;
23718;SDS011;43322;52.230;5.702;2024-02-26T03:05:59;17.83;;;13.25;;
23718;SDS011;43322;52.230;5.702;2024-02-26T03:08:26;17.45;;;14.00;;
23718;SDS011;43322;52.230;5.702;2024-02-26T03:10:53;17.30;;;13.77;;
23718;SDS011;43322;52.230;5.702;2024-02-26T03:13:21;17.42;;;13.88;;
23718;SDS011;43322;52.230;5.702;2024-02-26T03:15:48;17.98;;;13.43;;
23718;SDS011;43322;52.230;5.702;2024-02-26T03:18:14;17.33;;;13.85;;
23718;SDS011;43322;52.230;5.702;2024-02-26T03:20:41;16.52;;;13.75;;
23718;SDS011;43322;52.230;5.702;2024-02-26T03:23:08;19.63;;;13.93;;
23718;SDS011;43322;52.230;5.702;2024-02-26T03:25:37;15.23;;;13.63;;
23718;SDS011;43322;52.230;5.702;2024-02-26T03:28:05;14.82;;;12.85;;
23718;SDS011;43322;52.230;5.702;2024-02-26T03:30:33;15.73;;;13.52;;
23718;SDS011;43322;52.230;5.702;2024-02-26T03:33:00;14.98;;;13.32;;
23718;SDS011;43322;52.230;5.702;2024-02-26T03:35:27;18.02;;;14.07;;
23718;SDS011;43322;52.230;5.702;2024-02-26T03:37:54;15.02;;;13.00;;
23718;SDS011;43322;52.230;5.702;2024-02-26T03:40:21;16.02;;;13.38;;
23718;SDS011;43322;52.230;5.702;2024-02-26T03:42:48;15.93;;;13.43;;
23718;SDS011;43322;52.230;5.702;2024-02-26T03:45:15;14.70;;;13.00;;
23718;SDS011;43322;52.230;5.702;2024-02-26T03:47:43;15.23;;;13.20;;
23718;SDS011;43322;52.230;5.702;2024-02-26T03:50:10;16.00;;;13.57;;
23718;SDS011;43322;52.230;5.702;2024-02-26T03:52:37;16.55;;;13.15;;
23718;SDS011;43322;52.230;5.702;2024-02-26T03:55:04;15.13;;;13.40;;
23718;SDS011;43322;52.230;5.702;2024-02-26T03:57:31;16.40;;;13.95;;
23718;SDS011;43322;52.230;5.702;2024-02-26T03:59:58;18.45;;;12.85;;
23718;SDS011;43322;52.230;5.702;2024-02-26T04:02:25;16.08;;;13.23;;
23718;SDS011;43322;52.230;5.702;2024-02-26T04:04:53;17.05;;;13.68;;
23718;SDS011;43322;52.230;5.702;2024-02-26T04:07:20;16.20;;;13.60;;
23718;SDS011;43322;52.230;5.702;2024-02-26T04:09:47;16.25;;;13.32;;
23718;SDS011;43322;52.230;5.702;2024-02-26T04:12:13;16.75;;;13.80;;
23718;SDS011;43322;52.230;5.702;2024-02-26T04:14:40;17.00;;;14.48;;
23718;SDS011;43322;52.230;5.702;2024-02-26T04:17:07;15.38;;;13.25;;
23718;SDS011;43322;52.230;5.702;2024-02-26T04:19:34;18.00;;;13.93;;
23718;SDS011;43322;52.230;5.702;2024-02-26T04:22:02;17.35;;;14.07;;
23718;SDS011;43322;52.230;5.702;2024-02-26T04:24:30;20.50;;;15.18;;
23718;SDS011;43322;52.230;5.702;2024-02-26T04:26:57;19.25;;;14.65;;
23718;SDS011;43322;52.230;5.702;2024-02-26T04:29:24;19.20;;;14.90;;
23718;SDS011;43322;52.230;5.702;2024-02-26T04:31:51;19.65;;;14.90;;
23718;SDS011;43322;52.230;5.702;2024-02-26T04:34:18;21.30;;;15.40;;
23718;SDS011;43322;52.230;5.702;2024-02-26T04:36:45;20.35;;;15.63;;
23718;SDS011;43322;52.230;5.702;2024-02-26T04:39:14;23.00;;;16.13;;
23718;SDS011;43322;52.230;5.702;2024-02-26T04:41:41;20.02;;;15.88;;
23718;SDS011;43322;52.230;5.702;2024-02-26T04:44:08;22.08;;;16.13;;
23718;SDS011;43322;52.230;5.702;2024-02-26T04:46:35;19.08;;;15.32;;
23718;SDS011;43322;52.230;5.702;2024-02-26T04:49:01;20.08;;;15.88;;
23718;SDS011;43322;52.230;5.702;2024-02-26T04:51:28;19.38;;;15.95;;
23718;SDS011;43322;52.230;5.702;2024-02-26T04:53:55;20.10;;;16.08;;
23718;SDS011;43322;52.230;5.702;2024-02-26T04:56:23;19.20;;;15.85;;
23718;SDS011;43322;52.230;5.702;2024-02-26T04:58:51;18.60;;;15.38;;
23718;SDS011;43322;52.230;5.702;2024-02-26T05:01:17;18.85;;;15.38;;
23718;SDS011;43322;52.230;5.702;2024-02-26T05:03:44;19.95;;;16.05;;
23718;SDS011;43322;52.230;5.702;2024-02-26T05:06:11;21.35;;;16.73;;
23718;SDS011;43322;52.230;5.702;2024-02-26T05:08:38;19.58;;;16.30;;
23718;SDS011;43322;52.230;5.702;2024-02-26T05:11:05;20.55;;;16.48;;
23718;SDS011;43322;52.230;5.702;2024-02-26T05:13:33;19.10;;;16.08;;
23718;SDS011;43322;52.230;5.702;2024-02-26T05:16:00;20.52;;;16.23;;
23718;SDS011;43322;52.230;5.702;2024-02-26T05:18:27;19.45;;;15.95;;
23718;SDS011;43322;52.230;5.702;2024-02-26T05:20:54;24.35;;;16.10;;
23718;SDS011;43322;52.230;5.702;2024-02-26T05:23:21;21.75;;;16.30;;
23718;SDS011;43322;52.230;5.702;2024-02-26T05:25:48;22.55;;;16.50;;
23718;SDS011;43322;52.230;5.702;2024-02-26T05:28:15;22.52;;;15.90;;
23718;SDS011;43322;52.230;5.702;2024-02-26T05:30:44;20.02;;;15.52;;
23718;SDS011;43322;52.230;5.702;2024-02-26T05:33:11;23.23;;;16.77;;
23718;SDS011;43322;52.230;5.702;2024-02-26T05:35:38;20.88;;;16.50;;
23718;SDS011;43322;52.230;5.702;2024-02-26T05:38:05;21.75;;;17.27;;
23718;SDS011;43322;52.230;5.702;2024-02-26T05:40:32;21.52;;;16.55;;
23718;SDS011;43322;52.230;5.702;2024-02-26T05:42:59;22.83;;;16.88;;
23718;SDS011;43322;52.230;5.702;2024-02-26T05:45:26;20.58;;;16.75;;
23718;SDS011;43322;52.230;5.702;2024-02-26T05:47:54;21.15;;;16.48;;
23718;SDS011;43322;52.230;5.702;2024-02-26T05:50:21;24.60;;;16.95;;
23718;SDS011;43322;52.230;5.702;2024-02-26T05:52:48;25.38;;;17.63;;
23718;SDS011;43322;52.230;5.702;2024-02-26T05:55:14;22.48;;;16.48;;
23718;SDS011;43322;52.230;5.702;2024-02-26T05:57:41;23.95;;;16.27;;
23718;SDS011;43322;52.230;5.702;2024-02-26T06:00:08;23.52;;;16.88;;
23718;SDS011;43322;52.230;5.702;2024-02-26T06:02:35;25.42;;;17.52;;
23718;SDS011;43322;52.230;5.702;2024-02-26T06:05:04;25.27;;;17.52;;
23718;SDS011;43322;52.230;5.702;2024-02-26T06:07:32;28.30;;;18.50;;
23718;SDS011;43322;52.230;5.702;2024-02-26T06:09:59;26.38;;;17.63;;
23718;SDS011;43322;52.230;5.702;2024-02-26T06:12:27;27.23;;;18.58;;
23718;SDS011;43322;52.230;5.702;2024-02-26T06:14:55;26.92;;;18.23;;
23718;SDS011;43322;52.230;5.702;2024-02-26T06:17:23;28.05;;;17.73;;
23718;SDS011;43322;52.230;5.702;2024-02-26T06:19:50;29.55;;;18.55;;
23718;SDS011;43322;52.230;5.702;2024-02-26T06:22:18;27.77;;;18.45;;
23718;SDS011;43322;52.230;5.702;2024-02-26T06:24:45;29.55;;;18.58;;
23718;SDS011;43322;52.230;5.702;2024-02-26T06:27:12;27.88;;;18.60;;
23718;SDS011;43322;52.230;5.702;2024-02-26T06:29:38;28.73;;;18.25;;
23718;SDS011;43322;52.230;5.702;2024-02-26T06:32:06;29.75;;;19.05;;
23718;SDS011;43322;52.230;5.702;2024-02-26T06:34:32;31.23;;;18.92;;
23718;SDS011;43322;52.230;5.702;2024-02-26T06:36:59;30.58;;;19.13;;
23718;SDS011;43322;52.230;5.702;2024-02-26T06:39:27;27.33;;;19.13;;
23718;SDS011;43322;52.230;5.702;2024-02-26T06:41:54;32.15;;;20.00;;
23718;SDS011;43322;52.230;5.702;2024-02-26T06:44:25;31.98;;;19.13;;
23718;SDS011;43322;52.230;5.702;2024-02-26T06:46:56;35.45;;;20.55;;
23718;SDS011;43322;52.230;5.702;2024-02-26T06:49:24;36.45;;;21.20;;
23718;SDS011;43322;52.230;5.702;2024-02-26T06:51:51;38.28;;;21.95;;
23718;SDS011;43322;52.230;5.702;2024-02-26T06:54:17;36.13;;;22.17;;
23718;SDS011;43322;52.230;5.702;2024-02-26T06:56:46;35.45;;;21.05;;
23718;SDS011;43322;52.230;5.702;2024-02-26T06:59:12;37.45;;;21.58;;
23718;SDS011;43322;52.230;5.702;2024-02-26T07:01:39;40.05;;;22.58;;
23718;SDS011;43322;52.230;5.702;2024-02-26T07:04:07;39.78;;;22.15;;
23718;SDS011;43322;52.230;5.702;2024-02-26T07:06:35;40.53;;;22.38;;
23718;SDS011;43322;52.230;5.702;2024-02-26T07:09:02;45.88;;;23.80;;
23718;SDS011;43322;52.230;5.702;2024-02-26T07:11:29;42.92;;;22.80;;
23718;SDS011;43322;52.230;5.702;2024-02-26T07:13:57;43.47;;;23.40;;
23718;SDS011;43322;52.230;5.702;2024-02-26T07:16:26;43.92;;;22.83;;
23718;SDS011;43322;52.230;5.702;2024-02-26T07:18:53;45.45;;;23.77;;
23718;SDS011;43322;52.230;5.702;2024-02-26T07:21:20;47.50;;;24.88;;
23718;SDS011;43322;52.230;5.702;2024-02-26T07:23:47;45.38;;;24.88;;
23718;SDS011;43322;52.230;5.702;2024-02-26T07:26:13;51.20;;;27.00;;
23718;SDS011;43322;52.230;5.702;2024-02-26T07:28:42;46.08;;;26.55;;
23718;SDS011;43322;52.230;5.702;2024-02-26T07:31:10;44.63;;;25.88;;
23718;SDS011;43322;52.230;5.702;2024-02-26T07:33:37;45.33;;;25.92;;
23718;SDS011;43322;52.230;5.702;2024-02-26T07:36:04;45.38;;;24.73;;
23718;SDS011;43322;52.230;5.702;2024-02-26T07:38:31;49.05;;;26.25;;
23718;SDS011;43322;52.230;5.702;2024-02-26T07:40:58;42.58;;;25.50;;
23718;SDS011;43322;52.230;5.702;2024-02-26T07:43:25;47.22;;;25.70;;
23718;SDS011;43322;52.230;5.702;2024-02-26T07:45:52;44.33;;;24.67;;
23718;SDS011;43322;52.230;5.702;2024-02-26T07:48:20;41.60;;;24.50;;
23718;SDS011;43322;52.230;5.702;2024-02-26T07:50:47;40.53;;;23.25;;
23718;SDS011;43322;52.230;5.702;2024-02-26T07:53:13;38.13;;;22.92;;
23718;SDS011;43322;52.230;5.702;2024-02-26T07:55:40;36.97;;;22.13;;
23718;SDS011;43322;52.230;5.702;2024-02-26T07:58:07;41.90;;;22.88;;
23718;SDS011;43322;52.230;5.702;2024-02-26T08:00:34;38.17;;;22.73;;
23718;SDS011;43322;52.230;5.702;2024-02-26T08:03:01;36.45;;;21.90;;
23718;SDS011;43322;52.230;5.702;2024-02-26T08:05:29;35.17;;;21.02;;
23718;SDS011;43322;52.230;5.702;2024-02-26T08:07:56;31.20;;;20.45;;
23718;SDS011;43322;52.230;5.702;2024-02-26T08:10:23;32.10;;;19.95;;
23718;SDS011;43322;52.230;5.702;2024-02-26T08:12:50;29.90;;;19.38;;
23718;SDS011;43322;52.230;5.702;2024-02-26T08:15:17;29.55;;;19.95;;
23718;SDS011;43322;52.230;5.702;2024-02-26T08:17:44;29.90;;;19.52;;
23718;SDS011;43322;52.230;5.702;2024-02-26T08:20:12;26.27;;;17.48;;
23718;SDS011;43322;52.230;5.702;2024-02-26T08:22:40;26.75;;;17.52;;
23718;SDS011;43322;52.230;5.702;2024-02-26T08:25:08;28.17;;;18.35;;
23718;SDS011;43322;52.230;5.702;2024-02-26T08:27:35;24.75;;;17.25;;
23718;SDS011;43322;52.230;5.702;2024-02-26T08:30:02;23.60;;;16.25;;
23718;SDS011;43322;52.230;5.702;2024-02-26T08:32:30;20.98;;;15.18;;
23718;SDS011;43322;52.230;5.702;2024-02-26T08:34:57;19.77;;;15.80;;
23718;SDS011;43322;52.230;5.702;2024-02-26T08:37:23;22.60;;;15.38;;
23718;SDS011;43322;52.230;5.702;2024-02-26T08:39:52;20.58;;;15.23;;
23718;SDS011;43322;52.230;5.702;2024-02-26T08:42:18;19.23;;;14.38;;
23718;SDS011;43322;52.230;5.702;2024-02-26T08:44:46;21.25;;;15.95;;
23718;SDS011;43322;52.230;5.702;2024-02-26T08:47:13;21.23;;;15.35;;
23718;SDS011;43322;52.230;5.702;2024-02-26T08:49:42;19.35;;;14.23;;
23718;SDS011;43322;52.230;5.702;2024-02-26T08:52:09;19.42;;;14.38;;
23718;SDS011;43322;52.230;5.702;2024-02-26T08:54:36;19.05;;;14.68;;
23718;SDS011;43322;52.230;5.702;2024-02-26T08:57:04;16.60;;;13.63;;
23718;SDS011;43322;52.230;5.702;2024-02-26T08:59:31;18.90;;;13.98;;
23718;SDS011;43322;52.230;5.702;2024-02-26T09:01:58;18.77;;;13.85;;
23718;SDS011;43322;52.230;5.702;2024-02-26T09:04:25;15.80;;;13.25;;
23718;SDS011;43322;52.230;5.702;2024-02-26T09:06:52;16.38;;;12.90;;
23718;SDS011;43322;52.230;5.702;2024-02-26T09:09:19;14.93;;;12.35;;
23718;SDS011;43322;52.230;5.702;2024-02-26T09:11:47;15.50;;;13.32;;
23718;SDS011;43322;52.230;5.702;2024-02-26T09:14:18;18.45;;;13.38;;
23718;SDS011;43322;52.230;5.702;2024-02-26T09:16:44;16.50;;;12.68;;
23718;SDS011;43322;52.230;5.702;2024-02-26T09:19:13;17.80;;;12.48;;
23718;SDS011;43322;52.230;5.702;2024-02-26T09:21:42;14.35;;;12.05;;
23718;SDS011;43322;52.230;5.702;2024-02-26T09:24:09;17.08;;;12.48;;
23718;SDS011;43322;52.230;5.702;2024-02-26T09:26:36;16.17;;;11.75;;
23718;SDS011;43322;52.230;5.702;2024-02-26T09:29:03;15.20;;;11.35;;
23718;SDS011;43322;52.230;5.702;2024-02-26T09:31:32;12.50;;;11.05;;
23718;SDS011;43322;52.230;5.702;2024-02-26T09:33:59;14.27;;;11.23;;
23718;SDS011;43322;52.230;5.702;2024-02-26T09:36:26;15.80;;;11.35;;
23718;SDS011;43322;52.230;5.702;2024-02-26T09:38:52;13.32;;;11.45;;
23718;SDS011;43322;52.230;5.702;2024-02-26T09:41:19;11.88;;;10.60;;
23718;SDS011;43322;52.230;5.702;2024-02-26T09:43:46;16.13;;;11.40;;
23718;SDS011;43322;52.230;5.702;2024-02-26T09:46:18;14.57;;;10.38;;
23718;SDS011;43322;52.230;5.702;2024-02-26T09:48:47;15.30;;;11.07;;
23718;SDS011;43322;52.230;5.702;2024-02-26T09:51:14;15.55;;;11.30;;
23718;SDS011;43322;52.230;5.702;2024-02-26T09:53:43;14.85;;;11.35;;
23718;SDS011;43322;52.230;5.702;2024-02-26T09:56:11;17.73;;;11.57;;
23718;SDS011;43322;52.230;5.702;2024-02-26T09:58:39;15.05;;;11.63;;
23718;SDS011;43322;52.230;5.702;2024-02-26T10:01:10;13.85;;;10.65;;
23718;SDS011;43322;52.230;5.702;2024-02-26T10:03:40;12.63;;;10.60;;
23718;SDS011;43322;52.230;5.702;2024-02-26T10:06:11;13.57;;;10.10;;
23718;SDS011;43322;52.230;5.702;2024-02-26T10:08:38;13.07;;;10.52;;
23718;SDS011;43322;52.230;5.702;2024-02-26T10:11:06;12.07;;;10.10;;
23718;SDS011;43322;52.230;5.702;2024-02-26T10:13:34;16.13;;;10.80;;
23718;SDS011;43322;52.230;5.702;2024-02-26T10:16:01;15.40;;;11.27;;
23718;SDS011;43322;52.230;5.702;2024-02-26T10:18:44;12.23;;;10.15;;
23718;SDS011;43322;52.230;5.702;2024-02-26T10:21:13;13.38;;;10.52;;
23718;SDS011;43322;52.230;5.702;2024-02-26T10:23:43;15.43;;;11.32;;
23718;SDS011;43322;52.230;5.702;2024-02-26T10:26:10;12.50;;;9.77;;
23718;SDS011;43322;52.230;5.702;2024-02-26T10:28:38;10.70;;;9.50;;
23718;SDS011;43322;52.230;5.702;2024-02-26T10:31:05;12.90;;;9.77;;
23718;SDS011;43322;52.230;5.702;2024-02-26T10:33:33;10.52;;;8.93;;
23718;SDS011;43322;52.230;5.702;2024-02-26T10:36:00;11.82;;;9.52;;
23718;SDS011;43322;52.230;5.702;2024-02-26T10:38:29;13.57;;;9.25;;
23718;SDS011;43322;52.230;5.702;2024-02-26T10:40:56;10.70;;;9.10;;
23718;SDS011;43322;52.230;5.702;2024-02-26T10:43:22;9.98;;;8.80;;
23718;SDS011;43322;52.230;5.702;2024-02-26T10:45:51;11.40;;;8.70;;
23718;SDS011;43322;52.230;5.702;2024-02-26T10:48:18;12.20;;;9.38;;
23718;SDS011;43322;52.230;5.702;2024-02-26T10:50:45;11.93;;;10.18;;
23718;SDS011;43322;52.230;5.702;2024-02-26T10:53:15;10.48;;;9.43;;
23718;SDS011;43322;52.230;5.702;2024-02-26T10:55:48;10.43;;;8.85;;
23718;SDS011;43322;52.230;5.702;2024-02-26T10:58:15;12.10;;;9.65;;
23718;SDS011;43322;52.230;5.702;2024-02-26T11:00:43;10.40;;;9.23;;
23718;SDS011;43322;52.230;5.702;2024-02-26T11:03:12;11.95;;;8.95;;
23718;SDS011;43322;52.230;5.702;2024-02-26T11:05:42;10.98;;;9.35;;
23718;SDS011;43322;52.230;5.702;2024-02-26T11:08:10;13.18;;;9.85;;
23718;SDS011;43322;52.230;5.702;2024-02-26T11:10:38;9.90;;;8.90;;
23718;SDS011;43322;52.230;5.702;2024-02-26T11:13:08;11.32;;;8.98;;
23718;SDS011;43322;52.230;5.702;2024-02-26T11:15:38;10.73;;;9.63;;
23718;SDS011;43322;52.230;5.702;2024-02-26T11:18:05;11.25;;;9.63;;
23718;SDS011;43322;52.230;5.702;2024-02-26T11:20:33;11.63;;;10.43;;
23718;SDS011;43322;52.230;5.702;2024-02-26T11:23:04;13.15;;;10.05;;
23718;SDS011;43322;52.230;5.702;2024-02-26T11:25:31;12.52;;;9.82;;
23718;SDS011;43322;52.230;5.702;2024-02-26T11:27:58;11.45;;;9.93;;
23718;SDS011;43322;52.230;5.702;2024-02-26T11:30:32;11.05;;;9.95;;
23718;SDS011;43322;52.230;5.702;2024-02-26T11:33:03;12.20;;;9.90;;
23718;SDS011;43322;52.230;5.702;2024-02-26T11:35:32;12.38;;;10.13;;
23718;SDS011;43322;52.230;5.702;2024-02-26T11:38:00;11.40;;;10.13;;
23718;SDS011;43322;52.230;5.702;2024-02-26T11:40:27;13.90;;;10.85;;
23718;SDS011;43322;52.230;5.702;2024-02-26T11:42:54;13.60;;;11.05;;
23718;SDS011;43322;52.230;5.702;2024-02-26T11:48:24;13.55;;;10.82;;
23718;SDS011;43322;52.230;5.702;2024-02-26T11:50:52;14.82;;;11.35;;
23718;SDS011;43322;52.230;5.702;2024-02-26T11:53:20;15.23;;;10.60;;
23718;SDS011;43322;52.230;5.702;2024-02-26T11:58:58;16.77;;;11.07;;
23718;SDS011;43322;52.230;5.702;2024-02-26T12:04:19;11.40;;;9.95;;
23718;SDS011;43322;52.230;5.702;2024-02-26T12:06:50;11.98;;;9.95;;
23718;SDS011;43322;52.230;5.702;2024-02-26T12:09:31;12.82;;;10.00;;
23718;SDS011;43322;52.230;5.702;2024-02-26T12:11:59;13.15;;;10.48;;
23718;SDS011;43322;52.230;5.702;2024-02-26T12:14:27;14.45;;;10.50;;
23718;SDS011;43322;52.230;5.702;2024-02-26T12:16:55;13.13;;;10.60;;
23718;SDS011;43322;52.230;5.702;2024-02-26T12:19:23;11.77;;;10.27;;
23718;SDS011;43322;52.230;5.702;2024-02-26T12:21:51;12.75;;;10.77;;
23718;SDS011;43322;52.230;5.702;2024-02-26T12:24:19;12.55;;;10.07;;
23718;SDS011;43322;52.230;5.702;2024-02-26T12:26:47;13.27;;;10.40;;
23718;SDS011;43322;52.230;5.702;2024-02-26T12:29:13;14.32;;;10.73;;
23718;SDS011;43322;52.230;5.702;2024-02-26T12:31:40;14.70;;;11.07;;
23718;SDS011;43322;52.230;5.702;2024-02-26T12:34:09;11.32;;;10.07;;
23718;SDS011;43322;52.230;5.702;2024-02-26T12:36:36;13.15;;;10.90;;
23718;SDS011;43322;52.230;5.702;2024-02-26T12:39:04;13.10;;;10.82;;
23718;SDS011;43322;52.230;5.702;2024-02-26T12:41:32;12.40;;;10.25;;
23718;SDS011;43322;52.230;5.702;2024-02-26T12:43:59;12.15;;;10.25;;
23718;SDS011;43322;52.230;5.702;2024-02-26T12:46:26;14.52;;;10.65;;
23718;SDS011;43322;52.230;5.702;2024-02-26T12:48:54;10.80;;;9.65;;
23718;SDS011;43322;52.230;5.702;2024-02-26T12:51:24;11.35;;;9.70;;
23718;SDS011;43322;52.230;5.702;2024-02-26T12:53:52;10.85;;;9.60;;
23718;SDS011;43322;52.230;5.702;2024-02-26T12:56:20;13.15;;;10.20;;
23718;SDS011;43322;52.230;5.702;2024-02-26T12:58:48;11.85;;;10.15;;
23718;SDS011;43322;52.230;5.702;2024-02-26T13:01:17;12.23;;;9.20;;
23718;SDS011;43322;52.230;5.702;2024-02-26T13:03:47;11.52;;;10.15;;
23718;SDS011;43322;52.230;5.702;2024-02-26T13:06:15;10.95;;;9.85;;
23718;SDS011;43322;52.230;5.702;2024-02-26T13:08:45;11.77;;;9.52;;
23718;SDS011;43322;52.230;5.702;2024-02-26T13:11:12;13.15;;;9.93;;
23718;SDS011;43322;52.230;5.702;2024-02-26T13:13:39;12.02;;;9.57;;
23718;SDS011;43322;52.230;5.702;2024-02-26T13:16:07;10.23;;;9.23;;
23718;SDS011;43322;52.230;5.702;2024-02-26T13:18:36;11.55;;;9.48;;
23718;SDS011;43322;52.230;5.702;2024-02-26T13:21:09;11.40;;;9.07;;
23718;SDS011;43322;52.230;5.702;2024-02-26T13:23:37;10.35;;;9.35;;
23718;SDS011;43322;52.230;5.702;2024-02-26T13:26:06;10.75;;;9.65;;
23718;SDS011;43322;52.230;5.702;2024-02-26T13:28:34;10.40;;;9.27;;
23718;SDS011;43322;52.230;5.702;2024-02-26T13:31:01;9.38;;;8.48;;
23718;SDS011;43322;52.230;5.702;2024-02-26T13:33:29;10.65;;;9.63;;
23718;SDS011;43322;52.230;5.702;2024-02-26T13:35:57;11.30;;;9.18;;
23718;SDS011;43322;52.230;5.702;2024-02-26T13:38:25;12.93;;;9.80;;
23718;SDS011;43322;52.230;5.702;2024-02-26T13:40:52;10.82;;;9.20;;
23718;SDS011;43322;52.230;5.702;2024-02-26T13:43:21;13.75;;;9.27;;
23718;SDS011;43322;52.230;5.702;2024-02-26T13:45:48;10.45;;;8.98;;
23718;SDS011;43322;52.230;5.702;2024-02-26T13:48:15;10.07;;;8.90;;
23718;SDS011;43322;52.230;5.702;2024-02-26T13:50:42;10.63;;;9.40;;
23718;SDS011;43322;52.230;5.702;2024-02-26T13:53:11;13.85;;;9.32;;
23718;SDS011;43322;52.230;5.702;2024-02-26T13:55:38;10.32;;;8.85;;
23718;SDS011;43322;52.230;5.702;2024-02-26T13:58:07;11.23;;;8.75;;
23718;SDS011;43322;52.230;5.702;2024-02-26T14:00:36;8.95;;;8.07;;
23718;SDS011;43322;52.230;5.702;2024-02-26T14:03:03;9.20;;;8.10;;
23718;SDS011;43322;52.230;5.702;2024-02-26T14:05:30;8.75;;;7.95;;
23718;SDS011;43322;52.230;5.702;2024-02-26T14:07:57;9.60;;;8.60;;
23718;SDS011;43322;52.230;5.702;2024-02-26T14:10:24;9.75;;;8.25;;
23718;SDS011;43322;52.230;5.702;2024-02-26T14:12:51;8.95;;;7.63;;
23718;SDS011;43322;52.230;5.702;2024-02-26T14:15:18;8.77;;;7.95;;
23718;SDS011;43322;52.230;5.702;2024-02-26T14:17:46;7.85;;;6.85;;
23718;SDS011;43322;52.230;5.702;2024-02-26T14:20:18;6.95;;;6.35;;
23718;SDS011;43322;52.230;5.702;2024-02-26T14:22:45;11.20;;;7.10;;
23718;SDS011;43322;52.230;5.702;2024-02-26T14:25:12;8.10;;;7.32;;
23718;SDS011;43322;52.230;5.702;2024-02-26T14:27:39;7.32;;;6.72;;
23718;SDS011;43322;52.230;5.702;2024-02-26T14:30:06;7.22;;;6.65;;
23718;SDS011;43322;52.230;5.702;2024-02-26T14:32:34;7.35;;;6.65;;
23718;SDS011;43322;52.230;5.702;2024-02-26T14:35:04;7.63;;;6.78;;
23718;SDS011;43322;52.230;5.702;2024-02-26T14:37:32;7.70;;;6.90;;